Time;durP1;ratioP1;P1;durP2;ratioP2;P2;SDS_P1;SDS_P2;PMS_P1;PMS_P2;Temp;Humidity;BMP_temperature;BMP_pressure;BME280_temperature;BME280_humidity;BME280_pressure;Samples;Min_cycle;Max_cycle;Signal;HPM_P1;HPM_P2
2022/07/09 00:01:00;;;;;;;;;;;;;;;17.18;88.23;99372.41;1718055;83;20104;-67
2022/07/09 00:03:26;;;;;;;;;;;;;;;17.18;87.91;99373.80;1718122;83;21266;-67
2022/07/09 00:05:53;;;;;;;;;;;;;;;17.22;87.68;99366.35;1718236;83;20429;-67
2022/07/09 00:08:19;;;;;;;;;;;;;;;17.28;87.11;99366.87;1718106;83;20071;-68
2022/07/09 00:10:47;;;;;;;;;;;;;;;17.31;86.54;99366.94;1718081;83;20099;-67
2022/07/09 00:13:14;;;;;;;;;;;;;;;17.33;86.15;99361.80;1718046;83;20116;-67
2022/07/09 00:15:42;;;;;;;;;;;;;;;17.35;86.31;99364.20;1718212;83;21711;-68
2022/07/09 00:18:09;;;;;;;;;;;;;;;17.37;85.77;99362.67;1718092;83;20442;-67
2022/07/09 00:20:36;;;;;;;;;;;;;;;17.40;85.77;99368.08;1718029;83;20095;-68
2022/07/09 00:23:02;;;;;;;;;;;;;;;17.36;85.33;99365.23;1717988;82;20122;-68
2022/07/09 00:25:28;;;;;;;;;;;;;;;17.37;85.10;99369.61;1717997;83;20148;-67
2022/07/09 00:27:55;;;;;;;;;;;;;;;17.39;84.87;99366.47;1718134;83;21098;-68
2022/07/09 00:30:21;;;;;;;;;;;;;;;17.40;85.01;99366.69;1718063;83;20096;-68
2022/07/09 00:32:48;;;;;;;;;;;;;;;17.38;85.04;99366.25;1718119;83;20167;-68
2022/07/09 00:35:14;;;;;;;;;;;;;;;17.36;85.26;99369.39;1718061;83;20120;-68
2022/07/09 00:37:42;;;;;;;;;;;;;;;17.35;85.58;99369.76;1718136;83;20116;-67
2022/07/09 00:40:09;;;;;;;;;;;;;;;17.33;86.05;99369.35;1718069;83;21878;-68
2022/07/09 00:42:36;;;;;;;;;;;;;;;17.32;86.05;99368.55;1718318;83;20115;-67
2022/07/09 00:45:04;;;;;;;;;;;;;;;17.31;85.98;99371.09;1717992;83;20134;-68
2022/07/09 00:47:31;;;;;;;;;;;;;;;17.30;86.32;99365.91;1717989;83;20083;-67
2022/07/09 00:49:57;;;;;;;;;;;;;;;17.27;86.33;99363.28;1717951;83;20175;-68
2022/07/09 00:52:23;;;;;;;;;;;;;;;17.25;86.47;99357.88;1718159;83;21073;-67
2022/07/09 00:54:50;;;;;;;;;;;;;;;17.23;86.50;99361.61;1717981;83;20087;-68
2022/07/09 00:57:19;;;;;;;;;;;;;;;17.19;86.44;99357.95;1718200;83;20560;-67
2022/07/09 00:59:45;;;;;;;;;;;;;;;17.18;86.86;99367.44;1718212;83;20430;-67
2022/07/09 01:02:11;;;;;;;;;;;;;;;17.15;86.82;99364.23;1717930;83;20087;-68
2022/07/09 01:04:39;;;;;;;;;;;;;;;17.13;86.69;99362.40;1718029;83;21158;-68
2022/07/09 01:07:06;;;;;;;;;;;;;;;17.14;86.64;99365.39;1717936;83;20076;-68
2022/07/09 01:09:32;;;;;;;;;;;;;;;17.15;86.98;99373.94;1718112;83;20083;-67
2022/07/09 01:11:59;;;;;;;;;;;;;;;17.15;86.64;99368.39;1718067;83;20119;-68
2022/07/09 01:14:26;;;;;;;;;;;;;;;17.16;86.21;99368.61;1718124;83;20120;-68
2022/07/09 01:16:59;;;;;;;;;;;;;;;17.16;85.94;99371.38;1699443;83;40210;-68
2022/07/09 01:19:28;;;;;;;;;;;;;;;17.16;85.80;99370.00;1718028;83;20434;-68
2022/07/09 01:21:55;;;;;;;;;;;;;;;17.16;85.40;99370.00;1713354;83;20120;-68
2022/07/09 01:24:22;;;;;;;;;;;;;;;17.19;85.02;99369.05;1714847;83;20152;-68
2022/07/09 01:26:49;;;;;;;;;;;;;;;17.21;84.93;99366.72;1706825;83;20092;-68
2022/07/09 01:29:16;;;;;;;;;;;;;;;17.23;84.62;99374.89;1714892;83;21012;-68
2022/07/09 01:31:42;;;;;;;;;;;;;;;17.25;84.48;99371.75;1691184;84;20111;-68
2022/07/09 01:34:09;;;;;;;;;;;;;;;17.29;84.25;99371.25;1742754;82;20115;-68
2022/07/09 01:36:36;;;;;;;;;;;;;;;17.30;83.93;99365.91;1742736;82;20418;-68
2022/07/09 01:39:03;;;;;;;;;;;;;;;17.29;83.75;99358.18;1743091;82;20087;-68
2022/07/09 01:41:31;;;;;;;;;;;;;;;17.31;83.81;99359.20;1742465;82;21149;-68
2022/07/09 01:43:58;;;;;;;;;;;;;;;17.30;83.73;99358.98;1742609;82;20099;-68
2022/07/09 01:46:26;;;;;;;;;;;;;;;17.32;83.71;99359.42;1742680;82;20071;-68
2022/07/09 01:48:53;;;;;;;;;;;;;;;17.33;83.26;99356.86;1742660;82;20090;-68
2022/07/09 01:51:21;;;;;;;;;;;;;;;17.36;83.07;99356.91;1742715;82;20445;-68
2022/07/09 01:53:49;;;;;;;;;;;;;;;17.40;82.82;99362.53;1742872;82;22651;-68
2022/07/09 01:56:16;;;;;;;;;;;;;;;17.43;82.66;99355.66;1742607;82;20076;-68
2022/07/09 01:58:44;;;;;;;;;;;;;;;17.44;82.47;99366.18;1742615;82;20119;-68
2022/07/09 02:01:12;;;;;;;;;;;;;;;17.44;82.29;99366.18;1742647;82;20442;-68
2022/07/09 02:03:38;;;;;;;;;;;;;;;17.44;82.03;99368.95;1742689;82;20128;-68
2022/07/09 02:06:05;;;;;;;;;;;;;;;17.43;82.70;99380.64;1742753;82;21127;-67
2022/07/09 02:08:31;;;;;;;;;;;;;;;17.41;82.57;99380.20;1742591;82;20465;-67
2022/07/09 02:10:58;;;;;;;;;;;;;;;17.41;82.66;99387.72;1742650;82;20117;-68
2022/07/09 02:13:26;;;;;;;;;;;;;;;17.42;82.55;99395.68;1742579;82;20115;-68
2022/07/09 02:15:52;;;;;;;;;;;;;;;17.42;84.00;99397.06;1743048;82;20438;-67
2022/07/09 02:18:18;;;;;;;;;;;;;;;17.38;84.33;99397.58;1742856;82;21094;-67
2022/07/09 02:20:46;;;;;;;;;;;;;;;17.35;84.64;99402.47;1742810;82;20442;-68
2022/07/09 02:23:12;;;;;;;;;;;;;;;17.32;85.05;99399.65;1742852;82;20111;-68
2022/07/09 02:25:39;;;;;;;;;;;;;;;17.25;85.42;99400.30;1742740;82;20095;-67
2022/07/09 02:28:05;;;;;;;;;;;;;;;17.23;85.23;99405.98;1742910;82;20430;-68
2022/07/09 02:30:34;;;;;;;;;;;;;;;17.23;85.09;99405.98;1742789;82;21152;-67
2022/07/09 02:33:00;;;;;;;;;;;;;;;17.24;84.94;99404.83;1742781;82;20434;-67
2022/07/09 02:35:27;;;;;;;;;;;;;;;17.25;85.90;99400.88;1742771;82;20162;-67
2022/07/09 02:37:53;;;;;;;;;;;;;;;17.24;86.77;99407.59;1733041;82;20147;-67
2022/07/09 02:40:22;;;;;;;;;;;;;;;17.21;87.25;99411.90;1742804;82;20119;-68
2022/07/09 02:42:48;;;;;;;;;;;;;;;17.19;87.88;99417.59;1742899;82;21255;-67
2022/07/09 02:45:15;;;;;;;;;;;;;;;17.18;86.82;99418.76;1742842;82;20119;-68
2022/07/09 02:47:41;;;;;;;;;;;;;;;17.20;86.04;99425.55;1742745;82;20096;-67
2022/07/09 02:50:09;;;;;;;;;;;;;;;17.21;85.93;99424.38;1742825;82;20103;-68
2022/07/09 02:52:35;;;;;;;;;;;;;;;17.20;86.46;99419.20;1742899;82;20120;-68
2022/07/09 02:55:02;;;;;;;;;;;;;;;17.20;86.30;99426.12;1742752;82;21049;-68
2022/07/09 02:57:29;;;;;;;;;;;;;;;17.19;85.66;99435.03;1742721;82;20096;-68
2022/07/09 02:59:55;;;;;;;;;;;;;;;17.16;85.62;99440.73;1742756;82;20112;-68
2022/07/09 03:02:22;;;;;;;;;;;;;;;17.16;85.85;99433.79;1742876;82;20433;-67
2022/07/09 03:04:48;;;;;;;;;;;;;;;17.15;86.00;99431.38;1742998;82;20418;-68
2022/07/09 03:07:14;;;;;;;;;;;;;;;17.16;86.56;99426.86;1742769;82;21149;-68
2022/07/09 03:09:42;;;;;;;;;;;;;;;17.19;87.34;99428.69;1742922;82;20422;-68
2022/07/09 03:12:08;;;;;;;;;;;;;;;17.18;86.85;99419.56;1742655;82;20075;-68
2022/07/09 03:14:35;;;;;;;;;;;;;;;17.15;86.89;99422.47;1742945;82;20389;-67
2022/07/09 03:17:02;;;;;;;;;;;;;;;17.12;87.15;99419.04;1742861;82;20147;-68
2022/07/09 03:19:29;;;;;;;;;;;;;;;17.11;87.38;99420.20;1742746;82;21152;-68
2022/07/09 03:21:56;;;;;;;;;;;;;;;17.10;87.45;99417.20;1742654;82;20084;-68
2022/07/09 03:24:22;;;;;;;;;;;;;;;17.08;87.91;99418.16;1742887;82;20095;-68
2022/07/09 03:26:50;;;;;;;;;;;;;;;17.08;88.26;99412.61;1742873;82;20179;-68
2022/07/09 03:29:17;;;;;;;;;;;;;;;17.10;88.41;99415.02;1742856;82;20555;-68
2022/07/09 03:31:44;;;;;;;;;;;;;;;17.11;88.55;99418.81;1742876;82;21151;-68
2022/07/09 03:34:11;;;;;;;;;;;;;;;17.09;88.56;99412.83;1742786;82;20091;-68
2022/07/09 03:36:37;;;;;;;;;;;;;;;17.10;88.82;99413.05;1742822;82;20142;-68
2022/07/09 03:39:04;;;;;;;;;;;;;;;17.09;89.04;99408.67;1742829;82;20095;-68
2022/07/09 03:41:30;;;;;;;;;;;;;;;17.11;89.38;99411.88;1742790;82;20127;-67
2022/07/09 03:43:57;;;;;;;;;;;;;;;17.12;89.28;99406.56;1742867;82;21147;-68
2022/07/09 03:46:24;;;;;;;;;;;;;;;17.12;89.19;99406.56;1742668;82;20115;-68
2022/07/09 03:48:51;;;;;;;;;;;;;;;17.13;89.35;99413.72;1742733;82;20123;-68
2022/07/09 03:51:17;;;;;;;;;;;;;;;17.10;89.24;99411.66;1742523;82;20515;-68
2022/07/09 03:53:44;;;;;;;;;;;;;;;17.11;89.53;99409.11;1742721;82;20095;-68
2022/07/09 03:56:10;;;;;;;;;;;;;;;17.11;89.66;99404.95;1742739;82;21147;-68
2022/07/09 03:58:37;;;;;;;;;;;;;;;17.13;90.01;99409.55;1742845;82;20449;-68
2022/07/09 04:01:04;;;;;;;;;;;;;;;17.13;89.98;99404.00;1742852;82;20079;-68
2022/07/09 04:03:32;;;;;;;;;;;;;;;17.16;90.12;99409.41;1742895;82;20446;-68
2022/07/09 04:05:59;;;;;;;;;;;;;;;17.19;89.94;99407.30;1742847;82;20111;-67
2022/07/09 04:08:25;;;;;;;;;;;;;;;17.20;90.14;99408.91;1742804;82;21769;-68
2022/07/09 04:10:53;;;;;;;;;;;;;;;17.23;90.53;99403.22;1742774;82;20459;-67
2022/07/09 04:13:20;;;;;;;;;;;;;;;17.23;89.92;99401.24;1742825;82;20119;-67
2022/07/09 04:15:47;;;;;;;;;;;;;;;17.28;89.31;99402.93;1742803;82;20273;-68
2022/07/09 04:18:19;;;;;;;;;;;;;;;17.35;88.84;99404.44;1742774;82;20083;-68
2022/07/09 04:20:43;;;;;;;;;;;;;;;17.42;88.08;99406.78;1742337;82;21802;-68
2022/07/09 04:23:10;;;;;;;;;;;;;;;17.48;87.39;99400.36;1738116;82;20094;-68
2022/07/09 04:25:39;;;;;;;;;;;;;;;17.53;86.67;99407.00;1733561;82;20095;-68
2022/07/09 04:28:05;;;;;;;;;;;;;;;17.58;86.15;99397.00;1733224;83;20087;-68
2022/07/09 04:30:32;;;;;;;;;;;;;;;17.61;85.57;99397.66;1733649;83;20099;-68
2022/07/09 04:33:00;;;;;;;;;;;;;;;17.66;84.96;99392.42;1733642;82;21263;-68
2022/07/09 04:35:27;;;;;;;;;;;;;;;17.67;84.81;99389.28;1733551;83;20154;-68
2022/07/09 04:37:54;;;;;;;;;;;;;;;17.71;84.33;99387.96;1733530;83;20150;-68
2022/07/09 04:40:22;;;;;;;;;;;;;;;17.75;84.20;99377.73;1733755;82;20422;-68
2022/07/09 04:42:50;;;;;;;;;;;;;;;17.77;84.41;99377.58;1733635;82;20090;-68
2022/07/09 04:45:17;;;;;;;;;;;;;;;17.83;86.00;99366.17;1733437;82;22032;-68
2022/07/09 04:47:43;;;;;;;;;;;;;;;17.90;86.15;99364.92;1733426;83;20114;-68
2022/07/09 04:50:10;;;;;;;;;;;;;;;17.91;86.05;99363.75;1733550;83;20094;-68
2022/07/09 04:52:38;;;;;;;;;;;;;;;17.96;85.75;99357.86;1733724;82;20182;-68
2022/07/09 04:55:05;;;;;;;;;;;;;;;18.02;84.47;99354.99;1733644;83;20087;-68
2022/07/09 04:57:32;;;;;;;;;;;;;;;18.00;84.34;99353.17;1733761;82;21844;-69
2022/07/09 04:59:59;;;;;;;;;;;;;;;17.97;84.16;99350.55;1733418;83;20145;-70
2022/07/09 05:02:27;;;;;;;;;;;;;;;17.99;83.68;99348.79;1733490;83;20165;-71
2022/07/09 05:04:53;;;;;;;;;;;;;;;17.96;83.75;99341.20;1733374;83;20209;-69
2022/07/09 05:07:21;;;;;;;;;;;;;;;17.96;83.76;99337.83;1733236;83;20082;-68
2022/07/09 05:09:47;;;;;;;;;;;;;;;17.97;83.24;99336.66;1733451;83;21091;-69
2022/07/09 05:12:14;;;;;;;;;;;;;;;17.94;83.71;99333.23;1732924;82;20090;-69
2022/07/09 05:14:41;;;;;;;;;;;;;;;17.92;83.44;99325.05;1722612;83;20082;-69
2022/07/09 05:17:08;;;;;;;;;;;;;;;17.91;83.45;99320.70;1720330;83;20178;-69
2022/07/09 05:19:35;;;;;;;;;;;;;;;17.89;83.46;99316.91;1725753;83;20159;-69
2022/07/09 05:22:01;;;;;;;;;;;;;;;17.86;83.79;99315.45;1733605;82;21142;-69
2022/07/09 05:24:28;;;;;;;;;;;;;;;17.87;83.04;99303.98;1733358;82;20148;-69
2022/07/09 05:26:54;;;;;;;;;;;;;;;17.85;82.43;99305.52;1733483;83;20094;-69
2022/07/09 05:29:22;;;;;;;;;;;;;;;17.81;82.42;99290.98;1725414;83;20119;-68
2022/07/09 05:31:49;;;;;;;;;;;;;;;17.81;82.54;99285.44;1717384;83;20117;-67
2022/07/09 05:34:15;;;;;;;;;;;;;;;17.87;82.09;99283.73;1704654;84;21752;-69
2022/07/09 05:36:42;;;;;;;;;;;;;;;17.98;81.42;99277.75;1704228;84;20109;-70
2022/07/09 05:39:08;;;;;;;;;;;;;;;18.06;79.90;99276.11;1704254;84;20088;-71
2022/07/09 05:41:35;;;;;;;;;;;;;;;18.05;78.85;99274.51;1704204;84;20424;-70
2022/07/09 05:44:05;;;;;;;;;;;;;;;18.06;78.39;99269.75;1704397;84;20093;-69
2022/07/09 05:46:31;;;;;;;;;;;;;;;18.08;78.00;99262.66;1686420;84;21175;-70
2022/07/09 05:48:58;;;;;;;;;;;;;;;18.13;77.69;99262.92;1704470;84;20133;-74
2022/07/09 05:51:24;;;;;;;;;;;;;;;18.15;77.97;99264.74;1704341;84;20444;-76
2022/07/09 05:53:51;;;;;;;;;;;;;;;18.15;77.76;99255.82;1704429;84;20089;-68
2022/07/09 05:56:17;;;;;;;;;;;;;;;18.16;77.41;99249.67;1704645;84;21095;-69
2022/07/09 05:58:44;;;;;;;;;;;;;;;18.18;77.48;99242.36;1704382;84;21145;-70
2022/07/09 06:01:11;;;;;;;;;;;;;;;18.21;77.90;99240.22;1704222;84;20093;-69
2022/07/09 06:03:39;;;;;;;;;;;;;;;18.19;77.70;99241.98;1704528;84;20164;-67
2022/07/09 06:06:06;;;;;;;;;;;;;;;18.19;77.54;99241.98;1704257;84;20209;-68
2022/07/09 06:08:33;;;;;;;;;;;;;;;18.21;77.99;99245.19;1704483;84;20097;-70
2022/07/09 06:11:01;;;;;;;;;;;;;;;18.20;78.06;99238.63;1704507;83;20986;-69
2022/07/09 06:13:29;;;;;;;;;;;;;;;18.19;78.53;99243.38;1704238;84;20470;-69
2022/07/09 06:15:56;;;;;;;;;;;;;;;18.19;78.94;99239.20;1704253;84;20109;-69
2022/07/09 06:18:22;;;;;;;;;;;;;;;18.19;78.89;99232.84;1704360;84;20097;-70
2022/07/09 06:20:49;;;;;;;;;;;;;;;18.26;79.56;99244.88;1704317;84;20101;-70
2022/07/09 06:23:15;;;;;;;;;;;;;;;18.30;79.19;99244.34;1706647;84;21104;-70
2022/07/09 06:25:41;;;;;;;;;;;;;;;18.34;79.23;99254.12;1713084;83;20082;-70
2022/07/09 06:28:08;;;;;;;;;;;;;;;18.38;78.93;99258.55;1713078;84;20125;-69
2022/07/09 06:30:36;;;;;;;;;;;;;;;18.43;77.99;99266.57;1713258;84;20098;-70
2022/07/09 06:33:02;;;;;;;;;;;;;;;18.49;78.12;99272.58;1713383;84;20097;-70
2022/07/09 06:35:30;;;;;;;;;;;;;;;18.57;77.18;99270.11;1713256;84;21183;-70
2022/07/09 06:37:57;;;;;;;;;;;;;;;18.59;76.97;99269.15;1713229;84;20152;-70
2022/07/09 06:40:23;;;;;;;;;;;;;;;18.60;76.62;99261.05;1713547;84;20472;-69
2022/07/09 06:42:50;;;;;;;;;;;;;;;18.63;76.43;99252.55;1713217;84;20109;-69
2022/07/09 06:45:18;;;;;;;;;;;;;;;18.64;75.66;99245.22;1713233;84;20090;-70
2022/07/09 06:47:45;;;;;;;;;;;;;;;18.65;75.16;99246.02;1713259;84;21801;-70
2022/07/09 06:50:11;;;;;;;;;;;;;;;18.65;74.86;99232.13;1713341;84;20097;-70
2022/07/09 06:52:38;;;;;;;;;;;;;;;18.65;74.68;99227.95;1713264;84;20121;-69
2022/07/09 06:55:05;;;;;;;;;;;;;;;18.63;74.51;99224.16;1713532;84;20159;-70
2022/07/09 06:57:31;;;;;;;;;;;;;;;18.60;74.66;99210.19;1713495;84;20085;-69
2022/07/09 06:59:57;;;;;;;;;;;;;;;18.60;74.78;99190.72;1713033;84;21167;-69
2022/07/09 07:02:24;;;;;;;;;;;;;;;18.58;75.18;99172.23;1713276;84;20097;-70
2022/07/09 07:04:51;;;;;;;;;;;;;;;18.57;75.69;99167.27;1713080;84;20125;-70
2022/07/09 07:07:17;;;;;;;;;;;;;;;18.52;75.97;99138.41;1713234;83;20097;-69
2022/07/09 07:09:43;;;;;;;;;;;;;;;18.48;76.54;99155.04;1713548;84;20105;-70
2022/07/09 07:12:11;;;;;;;;;;;;;;;18.48;76.72;99166.78;1713257;84;21885;-69
2022/07/09 07:14:37;;;;;;;;;;;;;;;18.46;76.87;99169.13;1713124;84;20086;-69
2022/07/09 07:17:04;;;;;;;;;;;;;;;18.47;76.61;99177.68;1713486;84;20122;-69
2022/07/09 07:19:30;;;;;;;;;;;;;;;18.49;76.48;99185.02;1713131;84;20420;-69
2022/07/09 07:21:57;;;;;;;;;;;;;;;18.52;76.29;99186.25;1713289;84;20093;-69
2022/07/09 07:24:23;;;;;;;;;;;;;;;18.56;76.28;99183.73;1707821;84;22199;-69
2022/07/09 07:26:50;;;;;;;;;;;;;;;18.60;76.52;99182.38;1704283;84;20085;-69
2022/07/09 07:29:16;;;;;;;;;;;;;;;18.62;76.66;99179.47;1704255;84;20408;-70
2022/07/09 07:31:42;;;;;;;;;;;;;;;18.63;76.79;99184.44;1704240;84;20093;-69
2022/07/09 07:34:09;;;;;;;;;;;;;;;18.65;76.33;99177.91;1704426;84;20126;-70
2022/07/09 07:36:36;;;;;;;;;;;;;;;18.68;76.41;99182.72;1704341;84;21165;-69
2022/07/09 07:39:02;;;;;;;;;;;;;;;18.70;76.10;99176.98;1704615;84;20419;-69
2022/07/09 07:41:30;;;;;;;;;;;;;;;18.76;75.85;99185.20;1704386;84;20093;-69
2022/07/09 07:43:57;;;;;;;;;;;;;;;18.79;76.04;99187.23;1704392;84;20117;-69
2022/07/09 07:46:23;;;;;;;;;;;;;;;18.82;75.74;99187.06;1704331;84;20084;-70
2022/07/09 07:48:50;;;;;;;;;;;;;;;18.83;75.77;99191.45;1704346;84;21129;-70
2022/07/09 07:51:17;;;;;;;;;;;;;;;18.83;75.74;99195.61;1704290;84;20117;-69
2022/07/09 07:53:43;;;;;;;;;;;;;;;18.84;75.93;99204.76;1704567;84;20138;-70
2022/07/09 07:56:09;;;;;;;;;;;;;;;18.85;75.85;99215.50;1704347;84;20125;-70
2022/07/09 07:58:36;;;;;;;;;;;;;;;18.85;76.31;99222.45;1704381;84;20105;-69
2022/07/09 08:01:03;;;;;;;;;;;;;;;18.85;76.49;99221.66;1704501;84;21126;-69
2022/07/09 08:03:29;;;;;;;;;;;;;;;18.87;76.73;99232.61;1704345;84;20561;-70
2022/07/09 08:05:56;;;;;;;;;;;;;;;18.88;77.06;99225.88;1704278;84;20085;-70
2022/07/09 08:08:22;;;;;;;;;;;;;;;18.93;76.96;99223.34;1704262;84;20174;-70
2022/07/09 08:10:49;;;;;;;;;;;;;;;18.98;76.93;99223.81;1704257;84;20089;-70
2022/07/09 08:13:17;;;;;;;;;;;;;;;19.04;77.29;99229.25;1704231;84;20890;-69
2022/07/09 08:15:45;;;;;;;;;;;;;;;19.08;77.66;99226.48;1704015;84;20480;-70
2022/07/09 08:18:15;;;;;;;;;;;;;;;19.15;77.43;99233.52;1704314;84;20097;-70
2022/07/09 08:20:40;;;;;;;;;;;;;;;19.22;76.50;99234.18;1703750;84;20113;-70
2022/07/09 08:23:07;;;;;;;;;;;;;;;19.32;77.09;99230.71;1704583;84;20110;-70
2022/07/09 08:25:33;;;;;;;;;;;;;;;19.42;77.11;99237.78;1704233;84;21114;-70
2022/07/09 08:28:00;;;;;;;;;;;;;;;19.52;77.15;99234.13;1704223;84;20077;-70
2022/07/09 08:30:26;;;;;;;;;;;;;;;19.61;76.68;99231.23;1704486;84;20085;-69
2022/07/09 08:32:52;;;;;;;;;;;;;;;19.71;76.74;99224.14;1704145;84;20085;-70
2022/07/09 08:35:19;;;;;;;;;;;;;;;19.76;77.30;99228.77;1704190;84;20096;-70
2022/07/09 08:37:48;;;;;;;;;;;;;;;19.85;77.06;99235.41;1704281;84;20589;-69
2022/07/09 08:40:14;;;;;;;;;;;;;;;19.90;76.25;99227.28;1704093;84;20448;-70
2022/07/09 08:42:42;;;;;;;;;;;;;;;19.94;76.26;99228.11;1704277;84;20428;-70
2022/07/09 08:45:12;;;;;;;;;;;;;;;19.94;76.00;99232.30;1704268;84;20187;-70
2022/07/09 08:47:40;;;;;;;;;;;;;;;19.96;75.60;99218.19;1704337;83;20436;-70
2022/07/09 08:50:07;;;;;;;;;;;;;;;20.01;75.57;99217.83;1704264;84;21076;-70
2022/07/09 08:52:35;;;;;;;;;;;;;;;20.05;75.26;99217.85;1686052;84;20097;-70
2022/07/09 08:55:02;;;;;;;;;;;;;;;20.04;74.89;99214.27;1713161;81;20465;-70
2022/07/09 08:57:29;;;;;;;;;;;;;;;20.02;74.28;99218.03;1726213;83;20457;-71
2022/07/09 08:59:55;;;;;;;;;;;;;;;19.99;74.55;99211.05;1733037;83;20458;-70
2022/07/09 09:02:21;;;;;;;;;;;;;;;19.99;74.64;99211.84;1733046;83;21126;-71
2022/07/09 09:04:48;;;;;;;;;;;;;;;19.98;74.19;99217.20;1733249;83;20198;-71
2022/07/09 09:07:18;;;;;;;;;;;;;;;19.98;75.03;99217.80;1733218;83;20285;-69
2022/07/09 09:09:45;;;;;;;;;;;;;;;19.97;75.23;99214.81;1732770;82;20409;-71
2022/07/09 09:12:12;;;;;;;;;;;;;;;19.98;76.53;99215.81;1733128;83;20129;-71
2022/07/09 09:14:39;;;;;;;;;;;;;;;19.95;76.79;99217.18;1733477;83;21824;-70
2022/07/09 09:17:09;;;;;;;;;;;;;;;19.87;76.11;99220.50;1732817;83;20186;-74
2022/07/09 09:19:36;;;;;;;;;;;;;;;19.79;76.88;99214.07;1733141;83;20114;-79
2022/07/09 09:22:03;;;;;;;;;;;;;;;19.72;78.57;99219.58;1760411;81;20170;-71
2022/07/09 09:24:29;;;;;;;;;;;;;;;19.64;79.22;99210.95;1765339;81;20185;-85
2022/07/09 09:26:58;;;;;;;;;;;;;;;19.57;79.92;99219.27;1766469;81;21140;-83
2022/07/09 09:29:25;;;;;;;;;;;;;;;19.48;80.21;99219.34;1748818;81;20094;-79
2022/07/09 09:31:52;;;;;;;;;;;;;;;19.43;81.55;99219.90;1731246;83;20156;-76
2022/07/09 09:34:19;;;;;;;;;;;;;;;19.42;82.34;99222.48;1731414;83;20158;-76
2022/07/09 09:36:50;;;;;;;;;;;;;;;19.40;81.98;99223.45;1732197;81;20163;-77
2022/07/09 09:39:28;;;;;;;;;;;;;;;19.38;82.64;99221.64;1730040;83;21576;-77
2022/07/09 09:41:57;;;;;;;;;;;;;;;19.36;82.98;99222.61;1733025;82;20126;-76
2022/07/09 09:44:30;;;;;;;;;;;;;;;19.35;83.56;99220.21;1733377;83;20188;-74
2022/07/09 09:46:57;;;;;;;;;;;;;;;19.34;83.59;99221.39;1733351;81;20126;-80
2022/07/09 09:49:24;;;;;;;;;;;;;;;19.30;83.67;99220.55;1733059;82;20147;-79
2022/07/09 09:52:03;;;;;;;;;;;;;;;19.28;83.70;99215.96;1733173;82;21148;-74
2022/07/09 09:54:34;;;;;;;;;;;;;;;19.28;83.66;99217.35;1732450;83;20099;-78
2022/07/09 09:57:06;;;;;;;;;;;;;;;19.26;84.33;99211.37;1732602;83;20146;-77
2022/07/09 09:59:34;;;;;;;;;;;;;;;19.23;84.27;99211.54;1732583;82;20114;-75
2022/07/09 10:02:00;;;;;;;;;;;;;;;19.25;84.19;99216.72;1733307;83;20118;-73
2022/07/09 10:04:28;;;;;;;;;;;;;;;19.25;84.80;99215.33;1732846;83;21133;-80
2022/07/09 10:06:55;;;;;;;;;;;;;;;19.28;84.42;99215.37;1729770;83;20095;-76
2022/07/09 10:09:22;;;;;;;;;;;;;;;19.28;83.88;99222.33;1720511;83;20099;-76
2022/07/09 10:11:49;;;;;;;;;;;;;;;19.28;84.10;99218.16;1732850;83;20098;-79
2022/07/09 10:14:16;;;;;;;;;;;;;;;19.28;83.82;99218.74;1733420;81;20111;-75
2022/07/09 10:16:43;;;;;;;;;;;;;;;19.31;83.94;99223.55;1714504;83;21834;-75
2022/07/09 10:19:10;;;;;;;;;;;;;;;19.31;83.42;99222.16;1733407;82;20162;-79
2022/07/09 10:21:38;;;;;;;;;;;;;;;19.26;83.25;99226.67;1733200;83;20091;-74
2022/07/09 10:24:06;;;;;;;;;;;;;;;19.26;84.02;99235.02;1733623;82;20201;-74
2022/07/09 10:26:49;;;;;;;;;;;;;;;19.29;84.19;99230.08;1742363;82;20083;-71
2022/07/09 10:29:26;;;;;;;;;;;;;;;19.33;83.55;99225.36;1742548;82;21358;-70
2022/07/09 10:31:53;;;;;;;;;;;;;;;19.39;83.64;99226.61;1741724;82;20119;-69
2022/07/09 10:34:44;;;;;;;;;;;;;;;19.45;83.60;99231.45;1744189;82;20406;-70
2022/07/09 10:37:11;;;;;;;;;;;;;;;19.50;83.01;99230.30;1742697;82;20111;-70
2022/07/09 10:39:54;;;;;;;;;;;;;;;19.60;82.83;99231.03;1742297;82;20075;-69
2022/07/09 10:42:23;;;;;;;;;;;;;;;19.71;82.17;99230.51;1742649;82;21136;-70
2022/07/09 10:44:51;;;;;;;;;;;;;;;19.78;81.40;99229.18;1741578;82;20083;-72
2022/07/09 10:47:17;;;;;;;;;;;;;;;19.84;81.29;99228.83;1742478;82;20118;-70
2022/07/09 10:49:44;;;;;;;;;;;;;;;19.87;80.87;99219.70;1742773;82;20120;-72
2022/07/09 10:52:11;;;;;;;;;;;;;;;19.87;80.08;99221.89;1742612;82;20103;-71
2022/07/09 10:54:47;;;;;;;;;;;;;;;19.88;79.98;99229.06;1742557;82;21277;-69
2022/07/09 10:57:15;;;;;;;;;;;;;;;19.91;80.38;99228.30;1741122;82;20123;-70
2022/07/09 10:59:46;;;;;;;;;;;;;;;19.95;80.03;99228.32;1742263;82;20148;-71
2022/07/09 11:02:21;;;;;;;;;;;;;;;19.97;80.16;99223.16;1742710;82;20095;-71
2022/07/09 11:04:51;;;;;;;;;;;;;;;19.96;80.05;99220.17;1742406;82;20124;-70
2022/07/09 11:07:22;;;;;;;;;;;;;;;19.98;80.43;99223.37;1719702;82;21252;-69
2022/07/09 11:09:49;;;;;;;;;;;;;;;19.96;79.42;99224.35;1742747;82;20142;-69
2022/07/09 11:12:18;;;;;;;;;;;;;;;19.92;79.25;99220.14;1742789;82;20111;-70
2022/07/09 11:14:45;;;;;;;;;;;;;;;19.93;80.87;99223.73;1742729;82;20071;-70
2022/07/09 11:17:16;;;;;;;;;;;;;;;19.93;80.77;99219.55;1718981;82;20103;-72
2022/07/09 11:19:43;;;;;;;;;;;;;;;19.93;81.00;99215.37;1738503;82;21130;-73
2022/07/09 11:22:09;;;;;;;;;;;;;;;19.92;80.55;99217.36;1741698;82;20158;-72
2022/07/09 11:24:36;;;;;;;;;;;;;;;19.92;80.55;99222.92;1745197;81;20267;-71
2022/07/09 11:27:07;;;;;;;;;;;;;;;19.94;80.22;99219.76;1724836;83;20136;-70
2022/07/09 11:29:35;;;;;;;;;;;;;;;19.96;80.16;99220.97;1734044;82;20109;-71
2022/07/09 11:32:02;;;;;;;;;;;;;;;19.96;79.79;99226.55;1739965;82;21255;-71
2022/07/09 11:34:29;;;;;;;;;;;;;;;19.95;80.07;99219.97;1754837;82;21260;-72
2022/07/09 11:36:58;;;;;;;;;;;;;;;19.96;80.60;99232.70;1754685;81;20071;-72
2022/07/09 11:39:33;;;;;;;;;;;;;;;19.94;81.05;99223.94;1754348;82;20110;-71
2022/07/09 11:42:01;;;;;;;;;;;;;;;19.92;81.71;99225.71;1748119;82;20302;-72
2022/07/09 11:44:33;;;;;;;;;;;;;;;19.90;82.13;99222.52;1742048;82;21791;-76
2022/07/09 11:47:10;;;;;;;;;;;;;;;19.88;82.04;99221.30;1746867;82;20094;-71
2022/07/09 11:49:39;;;;;;;;;;;;;;;19.87;82.50;99219.70;1751780;81;20123;-73
2022/07/09 11:52:24;;;;;;;;;;;;;;;19.87;82.41;99231.64;1744320;82;20091;-71
2022/07/09 11:55:05;;;;;;;;;;;;;;;19.88;82.64;99221.30;1754120;82;20095;-72
2022/07/09 11:57:34;;;;;;;;;;;;;;;19.89;82.37;99221.51;1751460;82;21143;-72
2022/07/09 12:00:06;;;;;;;;;;;;;;;19.92;82.21;99223.52;1735207;81;20425;-72
2022/07/09 12:02:36;;;;;;;;;;;;;;;19.94;82.04;99215.58;1738169;82;20097;-71
2022/07/09 12:05:04;;;;;;;;;;;;;;;19.96;82.20;99215.40;1743179;82;20196;-72
2022/07/09 12:07:31;;;;;;;;;;;;;;;19.99;82.74;99219.40;1754931;81;20106;-76
2022/07/09 12:10:08;;;;;;;;;;;;;;;20.03;83.10;99216.84;1745544;82;21090;-74
2022/07/09 12:12:36;;;;;;;;;;;;;;;20.04;82.20;99212.88;1750088;81;20445;-73
2022/07/09 12:15:04;;;;;;;;;;;;;;;20.04;82.13;99219.04;1724986;83;20097;-73
2022/07/09 12:17:31;;;;;;;;;;;;;;;20.07;82.06;99210.70;1733533;82;20413;-73
2022/07/09 12:19:58;;;;;;;;;;;;;;;20.07;81.14;99204.33;1741720;82;20118;-73
2022/07/09 12:22:24;;;;;;;;;;;;;;;20.09;80.60;99213.11;1746065;82;21095;-72
2022/07/09 12:24:52;;;;;;;;;;;;;;;20.11;81.24;99203.17;1731249;81;20439;-72
2022/07/09 12:27:22;;;;;;;;;;;;;;;20.13;81.63;99201.39;1699051;84;20101;-72
2022/07/09 12:29:48;;;;;;;;;;;;;;;20.13;80.77;99200.00;1715939;83;20146;-74
2022/07/09 12:32:14;;;;;;;;;;;;;;;20.15;80.45;99196.23;1699110;84;20097;-72
2022/07/09 12:34:41;;;;;;;;;;;;;;;20.16;79.46;99196.44;1704404;83;21104;-72
2022/07/09 12:37:07;;;;;;;;;;;;;;;20.16;80.55;99192.26;1724524;83;20083;-73
2022/07/09 12:39:33;;;;;;;;;;;;;;;20.16;79.13;99190.86;1728156;83;20150;-72
2022/07/09 12:42:01;;;;;;;;;;;;;;;20.20;80.05;99187.50;1728113;83;20083;-72
2022/07/09 12:44:28;;;;;;;;;;;;;;;20.25;79.61;99191.30;1728010;83;20095;-74
2022/07/09 12:46:54;;;;;;;;;;;;;;;20.27;79.47;99190.31;1728098;83;21507;-72
2022/07/09 12:49:20;;;;;;;;;;;;;;;20.34;79.44;99193.73;1728183;83;20099;-73